Time;durP1;ratioP1;P1;durP2;ratioP2;P2;SDS_P1;SDS_P2;PMS_P1;PMS_P2;Temp;Humidity;BMP_temperature;BMP_pressure;BME280_temperature;BME280_humidity;BME280_pressure;Samples;Min_cycle;Max_cycle;Signal;HPM_P1;HPM_P2
2021/12/31 00:01:32;;;;;;;2.45;1.10;;;16.20;99.90;;;;;;5078181;28;20180;-67
2021/12/31 00:04:02;;;;;;;1.17;0.70;;;16.20;99.90;;;;;;5078655;28;20176;-67
2021/12/31 00:06:28;;;;;;;1.13;0.82;;;16.20;99.90;;;;;;5077084;28;20188;-67
2021/12/31 00:08:56;;;;;;;2.53;0.90;;;16.20;99.90;;;;;;5078221;28;20207;-68
2021/12/31 00:11:24;;;;;;;1.33;0.90;;;16.20;99.90;;;;;;5079902;28;20187;-68
2021/12/31 00:13:52;;;;;;;1.95;0.95;;;16.20;99.90;;;;;;5081443;28;20195;-67
2021/12/31 00:16:20;;;;;;;1.40;1.00;;;16.20;99.90;;;;;;5079311;28;20223;-66
2021/12/31 00:18:48;;;;;;;2.58;0.90;;;16.20;99.90;;;;;;5111330;28;20184;-68
2021/12/31 00:21:14;;;;;;;1.73;1.10;;;16.20;99.90;;;;;;5079893;28;20506;-67
2021/12/31 00:23:43;;;;;;;1.67;1.00;;;16.20;99.90;;;;;;5108699;28;20278;-67
2021/12/31 00:26:09;;;;;;;2.28;1.00;;;16.20;99.90;;;;;;5072887;28;20192;-67
2021/12/31 00:28:35;;;;;;;2.47;1.25;;;16.20;99.90;;;;;;5070875;28;20193;-68
2021/12/31 00:31:01;;;;;;;1.73;0.90;;;16.20;99.90;;;;;;5074161;28;20184;-68
2021/12/31 00:33:29;;;;;;;1.48;0.98;;;16.20;99.90;;;;;;5101632;28;20271;-68
2021/12/31 00:35:59;;;;;;;1.75;0.80;;;16.20;99.90;;;;;;5078911;28;20235;-68
2021/12/31 00:38:25;;;;;;;1.63;0.85;;;16.20;99.90;;;;;;5070051;28;20192;-68
2021/12/31 00:40:53;;;;;;;1.40;1.00;;;16.30;99.90;;;;;;5078578;28;20239;-68
2021/12/31 00:43:21;;;;;;;2.55;0.85;;;16.30;99.90;;;;;;5076222;28;20192;-67
2021/12/31 00:45:47;;;;;;;1.27;0.73;;;16.30;99.90;;;;;;5073047;28;20226;-67
2021/12/31 00:48:13;;;;;;;1.30;0.90;;;16.30;99.90;;;;;;5077321;28;20175;-67
2021/12/31 00:50:39;;;;;;;1.83;0.80;;;16.30;99.90;;;;;;5078002;28;20230;-67
2021/12/31 00:53:06;;;;;;;1.23;0.88;;;16.30;99.90;;;;;;5079040;28;20175;-67
2021/12/31 00:55:32;;;;;;;1.13;0.70;;;16.40;99.90;;;;;;5098560;28;20172;-68
2021/12/31 00:57:58;;;;;;;1.80;0.80;;;16.40;99.90;;;;;;5070689;28;20267;-67
2021/12/31 01:00:26;;;;;;;1.08;0.70;;;16.40;99.90;;;;;;5074033;28;20249;-68
2021/12/31 01:02:52;;;;;;;2.85;0.90;;;16.40;99.90;;;;;;5074668;28;20270;-67
2021/12/31 01:05:18;;;;;;;1.17;0.90;;;16.40;99.90;;;;;;5076806;28;20263;-67
2021/12/31 01:07:44;;;;;;;1.20;0.80;;;16.40;99.90;;;;;;5077343;28;20225;-68
2021/12/31 01:10:13;;;;;;;1.15;0.70;;;16.40;99.90;;;;;;5073506;28;20172;-68
2021/12/31 01:12:43;;;;;;;1.17;0.75;;;16.40;99.90;;;;;;5080092;28;20175;-65
2021/12/31 01:15:21;;;;;;;1.85;0.75;;;16.40;99.90;;;;;;5076217;28;20168;-67
2021/12/31 01:20:21;;;;;;;1.35;0.90;;;16.40;99.90;;;;;;5094620;28;20233;-66
2021/12/31 01:22:47;;;;;;;1.73;1.05;;;16.40;99.90;;;;;;5072552;28;20208;-67
2021/12/31 01:25:17;;;;;;;2.42;1.00;;;16.40;99.90;;;;;;5090254;28;20212;-67
2021/12/31 01:27:43;;;;;;;2.10;1.00;;;16.30;99.90;;;;;;5101217;27;20172;-68
2021/12/31 01:30:13;;;;;;;2.30;1.00;;;16.30;99.90;;;;;;5072467;28;20179;-68
2021/12/31 01:32:41;;;;;;;1.35;1.05;;;16.30;99.90;;;;;;5076493;28;20198;-68
2021/12/31 01:35:07;;;;;;;1.33;0.90;;;16.30;99.90;;;;;;5079587;28;20237;-68
2021/12/31 01:37:33;;;;;;;2.20;1.00;;;16.30;99.90;;;;;;5074926;28;20180;-67
2021/12/31 01:40:01;;;;;;;2.58;1.02;;;16.20;99.90;;;;;;5080158;28;20184;-67
2021/12/31 01:42:33;;;;;;;1.40;0.98;;;16.20;99.90;;;;;;5076769;28;20176;-68
2021/12/31 01:45:06;;;;;;;1.55;0.90;;;16.20;99.90;;;;;;5077286;28;20259;-67
2021/12/31 01:47:45;;;;;;;1.45;0.90;;;16.20;99.90;;;;;;5104934;27;20211;-67
2021/12/31 01:50:11;;;;;;;2.03;1.10;;;16.20;99.90;;;;;;5073973;28;20191;-68
2021/12/31 01:52:40;;;;;;;3.10;1.00;;;16.20;99.90;;;;;;5077328;28;20286;-68
2021/12/31 01:55:10;;;;;;;2.30;1.27;;;16.20;99.90;;;;;;5074817;28;20180;-67
2021/12/31 01:57:38;;;;;;;2.60;1.20;;;16.20;99.90;;;;;;5076935;28;20329;-67
2021/12/31 02:00:04;;;;;;;1.75;0.90;;;16.20;99.90;;;;;;5092445;28;20195;-68
2021/12/31 02:02:33;;;;;;;2.30;1.20;;;16.20;99.90;;;;;;5075831;28;20172;-68
2021/12/31 02:05:01;;;;;;;1.70;0.90;;;16.20;99.90;;;;;;5078235;28;20256;-67
2021/12/31 02:07:29;;;;;;;2.80;1.10;;;16.20;99.90;;;;;;5074254;28;20192;-66
2021/12/31 02:09:54;;;;;;;1.80;1.00;;;16.20;99.90;;;;;;5075457;28;20190;-67
2021/12/31 02:12:25;;;;;;;1.63;1.23;;;16.20;99.90;;;;;;5081334;28;20191;-68
2021/12/31 02:14:53;;;;;;;2.28;0.90;;;16.20;99.90;;;;;;5078649;28;20207;-68
2021/12/31 02:17:19;;;;;;;3.10;1.00;;;16.20;99.90;;;;;;5077769;28;20179;-67
2021/12/31 02:20:05;;;;;;;3.22;1.10;;;16.20;99.90;;;;;;5078301;28;20203;-68
2021/12/31 02:22:33;;;;;;;1.48;1.00;;;16.20;99.90;;;;;;5076012;28;20180;-64
2021/12/31 02:25:04;;;;;;;2.10;0.80;;;16.20;99.90;;;;;;5075373;28;20306;-68
2021/12/31 02:27:29;;;;;;;2.42;1.00;;;16.20;99.90;;;;;;5075668;28;20200;-68
2021/12/31 02:29:57;;;;;;;1.77;1.17;;;16.10;99.90;;;;;;5076063;28;20190;-68
2021/12/31 02:32:25;;;;;;;1.52;0.90;;;16.10;99.90;;;;;;5074915;28;20187;-67
2021/12/31 02:34:51;;;;;;;2.08;1.10;;;16.10;99.90;;;;;;5076573;28;20183;-67
2021/12/31 02:37:19;;;;;;;3.35;1.17;;;16.10;99.90;;;;;;5074418;28;20191;-67
2021/12/31 02:39:45;;;;;;;3.38;1.10;;;16.10;99.90;;;;;;5076570;28;20231;-68
2021/12/31 02:42:12;;;;;;;3.17;1.15;;;16.10;99.90;;;;;;5088390;28;20207;-67
2021/12/31 02:44:40;;;;;;;1.83;1.10;;;16.10;99.90;;;;;;5068187;28;20262;-65
2021/12/31 02:47:06;;;;;;;1.80;1.00;;;16.10;99.90;;;;;;5077268;28;20325;-67
2021/12/31 02:49:39;;;;;;;1.80;0.90;;;16.10;99.90;;;;;;5086807;28;20176;-67
2021/12/31 02:52:07;;;;;;;2.40;1.00;;;16.10;99.90;;;;;;5072401;28;20283;-68
2021/12/31 02:54:38;;;;;;;2.65;1.20;;;16.10;99.90;;;;;;5069139;28;20215;-68
2021/12/31 02:57:07;;;;;;;3.13;1.23;;;16.10;99.90;;;;;;5073992;28;20262;-67
2021/12/31 02:59:37;;;;;;;2.25;1.00;;;16.10;99.90;;;;;;5076979;28;20172;-68
2021/12/31 03:02:06;;;;;;;2.13;0.98;;;16.10;99.90;;;;;;5073615;28;20205;-68
2021/12/31 03:04:36;;;;;;;1.40;1.02;;;16.10;99.90;;;;;;5074684;28;20187;-68
2021/12/31 03:07:08;;;;;;;2.53;1.30;;;16.10;99.90;;;;;;5072150;28;20243;-67
2021/12/31 03:09:43;;;;;;;1.63;1.00;;;16.10;99.90;;;;;;5073446;28;20172;-68
2021/12/31 03:12:10;;;;;;;1.98;1.05;;;16.10;99.90;;;;;;5069182;28;20396;-67
2021/12/31 03:14:39;;;;;;;1.98;1.10;;;16.10;99.90;;;;;;5071076;28;20192;-66
2021/12/31 03:17:12;;;;;;;2.15;1.20;;;16.10;99.90;;;;;;5073396;28;20203;-68
2021/12/31 03:19:43;;;;;;;3.08;1.35;;;16.10;99.90;;;;;;5069220;28;20203;-68
2021/12/31 03:22:09;;;;;;;2.72;1.25;;;16.10;99.90;;;;;;5070827;28;20173;-70
2021/12/31 03:24:38;;;;;;;3.15;1.20;;;16.10;99.90;;;;;;5073525;28;20228;-67
2021/12/31 03:27:04;;;;;;;2.20;1.33;;;16.10;99.90;;;;;;5074659;28;20198;-70
2021/12/31 03:29:32;;;;;;;2.92;1.23;;;16.10;99.90;;;;;;5075262;28;20172;-69
2021/12/31 03:31:57;;;;;;;2.63;1.17;;;16.10;99.90;;;;;;5071814;28;20172;-68
2021/12/31 03:34:25;;;;;;;2.47;1.25;;;16.10;99.90;;;;;;5077602;28;20188;-69
2021/12/31 03:36:55;;;;;;;2.50;1.05;;;16.10;99.90;;;;;;5074897;28;20241;-68
2021/12/31 03:39:20;;;;;;;2.33;1.30;;;16.10;99.90;;;;;;5073280;28;20168;-68
2021/12/31 03:41:46;;;;;;;2.85;1.38;;;16.10;99.90;;;;;;5080118;28;20192;-70
2021/12/31 03:44:12;;;;;;;2.88;1.10;;;16.10;99.90;;;;;;5072441;28;20251;-66
2021/12/31 03:46:37;;;;;;;2.47;1.23;;;16.00;99.90;;;;;;5072314;28;20192;-69
2021/12/31 03:49:05;;;;;;;2.83;1.30;;;16.10;99.90;;;;;;5066820;28;20200;-69
2021/12/31 03:51:31;;;;;;;4.43;1.10;;;16.10;99.90;;;;;;5072197;28;20176;-69
2021/12/31 03:53:58;;;;;;;2.95;1.40;;;16.00;99.90;;;;;;5068329;28;20230;-68
2021/12/31 03:56:30;;;;;;;1.63;0.90;;;16.00;99.90;;;;;;5070515;28;20310;-69
2021/12/31 03:58:57;;;;;;;2.97;1.23;;;16.00;99.90;;;;;;5078940;28;20172;-70
2021/12/31 04:01:27;;;;;;;1.77;1.02;;;16.00;99.90;;;;;;5074259;28;20184;-70
2021/12/31 04:03:55;;;;;;;2.85;1.30;;;16.10;99.90;;;;;;5106055;28;20208;-70
2021/12/31 04:06:23;;;;;;;2.70;1.00;;;16.00;99.90;;;;;;5074728;28;20316;-70
2021/12/31 04:08:52;;;;;;;1.77;1.08;;;16.00;99.90;;;;;;5108150;28;20172;-71
2021/12/31 04:11:20;;;;;;;2.17;1.15;;;16.00;99.90;;;;;;5073835;28;20260;-70
2021/12/31 04:13:46;;;;;;;2.50;1.30;;;16.00;99.90;;;;;;5070236;28;20396;-69
2021/12/31 04:16:14;;;;;;;2.53;1.20;;;16.00;99.90;;;;;;5107307;28;20177;-70
2021/12/31 04:18:39;;;;;;;1.92;1.20;;;16.00;99.90;;;;;;5077216;28;20178;-70
2021/12/31 04:21:05;;;;;;;2.05;1.10;;;16.00;99.90;;;;;;5073557;28;20168;-70
2021/12/31 04:23:47;;;;;;;2.05;1.00;;;16.00;99.90;;;;;;5074156;28;20352;-70
2021/12/31 04:26:12;;;;;;;2.15;1.15;;;16.00;99.90;;;;;;5067410;28;20196;-70
2021/12/31 04:28:41;;;;;;;1.83;1.20;;;16.00;99.90;;;;;;5102266;28;20169;-70
2021/12/31 04:31:07;;;;;;;1.70;1.10;;;16.00;99.90;;;;;;5099583;28;20214;-68
2021/12/31 04:33:34;;;;;;;3.45;1.30;;;15.90;99.90;;;;;;5093816;28;20180;-69
2021/12/31 04:36:00;;;;;;;2.42;1.30;;;15.90;99.90;;;;;;5111571;28;20199;-70
2021/12/31 04:38:28;;;;;;;1.90;1.10;;;15.90;99.90;;;;;;5079044;28;20199;-69
2021/12/31 04:40:56;;;;;;;2.20;1.13;;;15.90;99.90;;;;;;5070552;28;20189;-70
2021/12/31 04:43:21;;;;;;;1.88;1.02;;;15.90;99.90;;;;;;5078833;28;20196;-70
2021/12/31 04:45:47;;;;;;;2.38;1.17;;;15.80;99.90;;;;;;5078886;28;20253;-70
2021/12/31 04:48:13;;;;;;;3.33;1.50;;;15.80;99.90;;;;;;5076879;28;20315;-70
2021/12/31 04:50:43;;;;;;;3.13;1.30;;;15.80;99.90;;;;;;5077652;28;20248;-67
2021/12/31 04:53:11;;;;;;;3.72;1.30;;;15.80;99.90;;;;;;5091503;28;20165;-70
2021/12/31 04:55:37;;;;;;;2.75;1.15;;;15.80;99.90;;;;;;5077166;28;20230;-70
2021/12/31 04:58:02;;;;;;;3.05;1.35;;;15.80;99.90;;;;;;5079921;28;20472;-70
2021/12/31 05:00:28;;;;;;;2.92;1.27;;;15.70;99.90;;;;;;5080819;28;20171;-69
2021/12/31 05:02:54;;;;;;;2.20;1.10;;;15.70;99.90;;;;;;5078452;28;20238;-71
2021/12/31 05:05:19;;;;;;;2.67;1.38;;;15.70;99.90;;;;;;5075547;28;20196;-70
2021/12/31 05:07:45;;;;;;;2.33;1.20;;;15.70;99.90;;;;;;5076525;28;20200;-68
2021/12/31 05:10:11;;;;;;;2.00;1.30;;;15.70;99.90;;;;;;5074443;28;20165;-71
2021/12/31 05:12:40;;;;;;;2.08;1.10;;;15.70;99.90;;;;;;5072146;28;20201;-68
2021/12/31 05:15:10;;;;;;;3.05;1.40;;;15.60;99.90;;;;;;5076171;28;20190;-68
2021/12/31 05:17:38;;;;;;;3.40;1.30;;;15.60;99.90;;;;;;5079384;28;20501;-70
2021/12/31 05:20:07;;;;;;;2.13;1.05;;;15.60;99.90;;;;;;5079564;28;20178;-71
2021/12/31 05:22:34;;;;;;;2.78;1.20;;;15.60;99.90;;;;;;5074999;28;20274;-70
2021/12/31 05:25:00;;;;;;;2.80;1.30;;;15.60;99.90;;;;;;5078656;28;20194;-71
2021/12/31 05:27:26;;;;;;;2.42;1.13;;;15.60;99.90;;;;;;5077125;28;20200;-69
2021/12/31 05:29:51;;;;;;;2.30;1.13;;;15.50;99.90;;;;;;5076978;28;20191;-69
2021/12/31 05:32:17;;;;;;;1.45;1.10;;;15.50;99.90;;;;;;5076370;28;20195;-68
2021/12/31 05:34:43;;;;;;;2.42;1.05;;;15.50;99.90;;;;;;5070448;28;20172;-70
2021/12/31 05:37:08;;;;;;;3.10;1.27;;;15.50;99.90;;;;;;5074984;28;20334;-70
2021/12/31 05:39:34;;;;;;;2.55;1.20;;;15.50;99.90;;;;;;5077508;28;20207;-71
2021/12/31 05:42:00;;;;;;;3.45;1.40;;;15.50;99.90;;;;;;5076543;28;20208;-69
2021/12/31 05:44:25;;;;;;;3.97;1.50;;;15.40;99.90;;;;;;5075597;28;20185;-71
2021/12/31 05:46:53;;;;;;;2.17;1.30;;;15.40;99.90;;;;;;5085643;28;20343;-70
2021/12/31 05:49:20;;;;;;;3.08;1.50;;;15.40;99.90;;;;;;5076527;28;20219;-70
2021/12/31 05:51:46;;;;;;;4.32;1.20;;;15.40;99.90;;;;;;5076386;28;20350;-70
2021/12/31 05:54:13;;;;;;;4.40;1.52;;;15.40;99.90;;;;;;5076595;28;20321;-71
2021/12/31 05:56:39;;;;;;;4.78;1.20;;;15.40;99.90;;;;;;5108327;28;20188;-70
2021/12/31 05:59:05;;;;;;;3.72;1.38;;;15.40;99.90;;;;;;5072938;28;20184;-70
2021/12/31 06:01:32;;;;;;;1.98;1.20;;;15.30;99.90;;;;;;5076309;28;20212;-70
2021/12/31 06:03:58;;;;;;;2.50;1.40;;;15.30;99.90;;;;;;5078076;28;20176;-70
2021/12/31 06:06:28;;;;;;;1.83;1.15;;;15.30;99.90;;;;;;5075511;28;20183;-69
2021/12/31 06:08:58;;;;;;;2.55;1.30;;;15.30;99.90;;;;;;5072020;28;20164;-69
2021/12/31 06:11:28;;;;;;;4.70;1.42;;;15.20;99.90;;;;;;5075304;28;20172;-67
2021/12/31 06:14:01;;;;;;;3.13;1.33;;;15.20;99.90;;;;;;5074409;28;20192;-71
2021/12/31 06:16:28;;;;;;;2.15;1.20;;;15.20;99.90;;;;;;5075819;28;20200;-71
2021/12/31 06:18:54;;;;;;;2.17;1.40;;;15.10;99.90;;;;;;5104608;28;20176;-71
2021/12/31 06:21:20;;;;;;;3.35;1.60;;;15.10;99.90;;;;;;5077526;28;20265;-70
2021/12/31 06:23:46;;;;;;;2.33;1.30;;;15.10;99.90;;;;;;5066268;28;20168;-70
2021/12/31 06:26:13;;;;;;;3.97;1.70;;;15.10;99.90;;;;;;5066704;28;20214;-70
2021/12/31 06:28:41;;;;;;;2.42;1.33;;;15.10;99.90;;;;;;5076071;28;20196;-70
2021/12/31 06:31:09;;;;;;;2.50;1.48;;;15.10;99.90;;;;;;5084039;28;20271;-70
2021/12/31 06:33:36;;;;;;;3.97;1.55;;;15.10;99.90;;;;;;5075596;28;20187;-69
2021/12/31 06:36:02;;;;;;;2.42;1.35;;;15.10;99.90;;;;;;5078177;28;20191;-70
2021/12/31 06:38:28;;;;;;;4.00;1.55;;;15.10;99.90;;;;;;5079313;28;20172;-69
2021/12/31 06:40:54;;;;;;;2.38;1.52;;;15.10;99.90;;;;;;5074494;28;20275;-70
2021/12/31 06:43:21;;;;;;;3.85;1.60;;;15.10;99.90;;;;;;5075774;28;20188;-68
2021/12/31 06:45:49;;;;;;;2.63;1.63;;;15.10;99.90;;;;;;5074582;28;20207;-70
2021/12/31 06:48:15;;;;;;;2.83;1.83;;;15.10;99.90;;;;;;5074826;28;20192;-70
2021/12/31 06:50:40;;;;;;;5.38;2.00;;;15.10;99.90;;;;;;5088451;28;20233;-71
2021/12/31 06:53:06;;;;;;;3.50;1.38;;;15.10;99.90;;;;;;5070973;28;20184;-68
2021/12/31 06:55:32;;;;;;;3.08;1.30;;;15.10;99.90;;;;;;5070858;28;20196;-69
2021/12/31 06:57:59;;;;;;;3.22;1.38;;;15.00;99.90;;;;;;5071420;28;20267;-68
2021/12/31 07:00:24;;;;;;;2.75;1.33;;;15.00;99.90;;;;;;5073369;28;20195;-70
2021/12/31 07:03:09;;;;;;;3.53;1.30;;;15.00;99.90;;;;;;5071369;28;20280;-71
2021/12/31 07:05:34;;;;;;;4.60;1.30;;;14.90;99.90;;;;;;5079601;28;20199;-70
2021/12/31 07:08:00;;;;;;;2.65;1.15;;;14.90;99.90;;;;;;5072631;28;20265;-70
2021/12/31 07:10:27;;;;;;;2.78;1.50;;;14.90;99.90;;;;;;5074863;28;20190;-68
2021/12/31 07:13:04;;;;;;;3.75;1.40;;;14.80;99.90;;;;;;5071328;28;20179;-71
2021/12/31 07:15:30;;;;;;;2.58;1.30;;;14.80;99.90;;;;;;5070040;28;20270;-68
2021/12/31 07:17:56;;;;;;;4.00;1.50;;;14.80;99.90;;;;;;5071679;28;20507;-72
2021/12/31 07:20:24;;;;;;;3.22;1.58;;;14.80;99.90;;;;;;5073501;28;20180;-70
2021/12/31 07:22:52;;;;;;;3.35;1.30;;;14.80;99.90;;;;;;5077004;28;20195;-72
2021/12/31 07:25:17;;;;;;;3.75;1.55;;;14.70;99.90;;;;;;5070586;28;20190;-69
2021/12/31 07:27:50;;;;;;;4.10;1.80;;;14.70;99.90;;;;;;5104276;28;20195;-74
2021/12/31 07:30:16;;;;;;;2.75;1.30;;;14.70;99.90;;;;;;5072743;28;20197;-68
2021/12/31 07:32:42;;;;;;;2.70;1.40;;;14.70;99.90;;;;;;5067029;28;20199;-70
2021/12/31 07:35:08;;;;;;;2.65;1.20;;;14.70;99.90;;;;;;5102067;28;20181;-67
2021/12/31 07:37:37;;;;;;;3.25;1.30;;;14.70;99.90;;;;;;5067177;28;20208;-71
2021/12/31 07:40:05;;;;;;;1.90;1.27;;;14.70;99.90;;;;;;5071613;28;20202;-73
2021/12/31 07:42:32;;;;;;;1.50;1.10;;;14.70;99.90;;;;;;5073628;28;20175;-72
2021/12/31 07:45:00;;;;;;;2.60;1.20;;;14.70;99.90;;;;;;5070143;28;20191;-68
2021/12/31 07:47:28;;;;;;;2.00;1.27;;;14.60;99.90;;;;;;5070948;28;20191;-74
2021/12/31 07:49:54;;;;;;;2.08;1.30;;;14.60;99.90;;;;;;5072050;28;20199;-71
2021/12/31 07:52:20;;;;;;;2.63;1.30;;;14.60;99.90;;;;;;5077048;28;20530;-70
2021/12/31 07:54:46;;;;;;;2.65;1.40;;;14.60;99.90;;;;;;5073122;28;20373;-70
2021/12/31 07:57:11;;;;;;;4.70;2.83;;;14.60;99.90;;;;;;5073395;28;20217;-71
2021/12/31 07:59:37;;;;;;;3.22;1.58;;;14.60;99.90;;;;;;5071881;28;20192;-70
2021/12/31 08:02:06;;;;;;;3.08;1.40;;;14.60;99.90;;;;;;5074227;28;20176;-69
2021/12/31 08:04:33;;;;;;;2.13;1.40;;;14.60;99.90;;;;;;5070919;28;20465;-70
2021/12/31 08:06:58;;;;;;;3.10;1.05;;;14.60;99.90;;;;;;5075573;28;20249;-69
2021/12/31 08:09:24;;;;;;;2.42;1.15;;;14.60;99.90;;;;;;5071115;28;20192;-67
2021/12/31 08:11:52;;;;;;;3.92;1.63;;;14.60;99.90;;;;;;5080121;28;20164;-71
2021/12/31 08:14:17;;;;;;;1.95;1.20;;;14.60;99.90;;;;;;5083968;28;20198;-71
2021/12/31 08:16:44;;;;;;;2.22;1.60;;;14.60;99.90;;;;;;5074552;28;20207;-71
2021/12/31 08:19:09;;;;;;;2.03;1.30;;;14.60;99.90;;;;;;5079155;28;20172;-70
2021/12/31 08:21:37;;;;;;;2.10;1.13;;;14.70;99.90;;;;;;5078922;28;20261;-70
2021/12/31 08:24:06;;;;;;;1.80;1.17;;;14.70;99.90;;;;;;5079397;28;20187;-70
2021/12/31 08:26:33;;;;;;;2.75;1.27;;;14.70;99.90;;;;;;5076248;28;20274;-71
2021/12/31 08:29:01;;;;;;;1.88;1.10;;;14.70;99.90;;;;;;5075533;28;20270;-71
2021/12/31 08:31:27;;;;;;;1.65;1.13;;;14.70;99.90;;;;;;5077912;28;20172;-70
2021/12/31 08:33:55;;;;;;;3.97;1.30;;;14.80;99.90;;;;;;5076206;28;20274;-69
2021/12/31 08:36:20;;;;;;;2.95;1.30;;;14.80;99.90;;;;;;5068490;28;20194;-70
2021/12/31 08:38:48;;;;;;;2.38;1.27;;;14.80;99.90;;;;;;5075818;28;20254;-71
2021/12/31 08:41:14;;;;;;;3.53;1.20;;;14.80;99.90;;;;;;5077687;28;20200;-69
2021/12/31 08:43:42;;;;;;;1.48;1.20;;;14.90;99.90;;;;;;5111335;28;20178;-70
2021/12/31 08:46:07;;;;;;;2.30;1.17;;;14.90;99.90;;;;;;5075997;28;20198;-69
2021/12/31 08:48:33;;;;;;;2.22;1.38;;;14.90;99.90;;;;;;5076756;28;20196;-68
2021/12/31 08:50:59;;;;;;;3.70;1.00;;;15.00;99.90;;;;;;5078395;28;20179;-71
2021/12/31 08:53:24;;;;;;;3.75;1.52;;;15.00;99.90;;;;;;5111213;28;20164;-70
2021/12/31 08:55:50;;;;;;;2.60;1.30;;;15.00;99.90;;;;;;5075180;28;20199;-71
2021/12/31 08:58:18;;;;;;;1.65;1.20;;;15.00;99.90;;;;;;5079777;28;20184;-69
2021/12/31 09:00:44;;;;;;;1.67;1.10;;;15.10;99.90;;;;;;5083066;28;20220;-71
2021/12/31 09:03:09;;;;;;;1.95;1.23;;;15.10;99.90;;;;;;5074905;28;20199;-70
2021/12/31 09:05:37;;;;;;;1.25;1.00;;;15.10;99.90;;;;;;5076350;28;20183;-71
2021/12/31 09:08:05;;;;;;;2.17;1.30;;;15.10;99.90;;;;;;5074429;28;20213;-70
2021/12/31 09:10:33;;;;;;;2.72;1.13;;;15.10;99.90;;;;;;5080307;28;20192;-68
2021/12/31 09:12:59;;;;;;;1.67;1.20;;;15.10;99.90;;;;;;5077905;28;20175;-70
2021/12/31 09:15:25;;;;;;;2.25;0.95;;;15.20;99.90;;;;;;5077061;28;20187;-70
2021/12/31 09:17:55;;;;;;;2.42;1.20;;;15.20;99.90;;;;;;5074206;28;20168;-70
2021/12/31 09:20:21;;;;;;;2.60;1.13;;;15.20;99.90;;;;;;5075602;28;20164;-70
2021/12/31 09:22:49;;;;;;;1.35;1.13;;;15.20;99.90;;;;;;5076597;28;20288;-71
2021/12/31 09:25:18;;;;;;;2.28;1.10;;;15.20;99.90;;;;;;5077183;28;20188;-70
2021/12/31 09:27:46;;;;;;;1.45;1.27;;;15.20;99.90;;;;;;5074386;28;20198;-71
2021/12/31 09:30:12;;;;;;;1.00;0.90;;;15.30;99.90;;;;;;5076994;28;20222;-69
2021/12/31 09:32:38;;;;;;;1.23;0.82;;;15.30;99.90;;;;;;5076095;28;20176;-70
2021/12/31 09:35:06;;;;;;;1.05;0.90;;;15.30;99.90;;;;;;5076754;28;20267;-71
2021/12/31 09:37:32;;;;;;;1.33;0.95;;;15.40;99.90;;;;;;5082957;28;20264;-71
2021/12/31 09:39:58;;;;;;;1.60;1.02;;;15.40;99.90;;;;;;5077908;28;20184;-71
2021/12/31 09:42:28;;;;;;;1.00;0.80;;;15.40;99.90;;;;;;5084144;28;20198;-70
2021/12/31 09:44:54;;;;;;;1.05;0.90;;;15.50;99.90;;;;;;5078042;28;20172;-71
2021/12/31 09:47:20;;;;;;;2.22;0.90;;;15.50;99.90;;;;;;5072018;28;20245;-71
2021/12/31 09:49:49;;;;;;;2.17;1.20;;;15.50;99.90;;;;;;5074697;28;20267;-67
2021/12/31 09:52:20;;;;;;;1.38;0.90;;;15.60;99.90;;;;;;5087571;28;20186;-69
2021/12/31 09:54:49;;;;;;;1.30;0.95;;;15.60;99.90;;;;;;5079324;28;20201;-71
2021/12/31 09:57:21;;;;;;;3.58;1.25;;;15.60;99.90;;;;;;5076102;28;20270;-72
2021/12/31 09:59:47;;;;;;;1.05;0.90;;;15.60;99.90;;;;;;5076738;28;20268;-70
2021/12/31 10:02:15;;;;;;;1.40;1.05;;;15.60;99.90;;;;;;5075998;28;20202;-72
2021/12/31 10:04:58;;;;;;;1.48;1.02;;;15.60;99.90;;;;;;5076765;28;20208;-71
2021/12/31 10:07:29;;;;;;;1.15;1.00;;;15.60;99.90;;;;;;5075393;28;20207;-69
2021/12/31 10:10:14;;;;;;;1.73;1.00;;;15.60;99.90;;;;;;5076698;28;20221;-71
2021/12/31 10:12:47;;;;;;;1.58;1.08;;;15.70;99.90;;;;;;5077771;28;20196;-68
2021/12/31 10:15:17;;;;;;;1.60;1.00;;;15.70;99.90;;;;;;5093358;28;20190;-72
2021/12/31 10:17:43;;;;;;;1.60;1.00;;;15.70;99.90;;;;;;5072090;28;20192;-71
2021/12/31 10:20:09;;;;;;;1.92;1.10;;;15.70;99.90;;;;;;5076472;28;20191;-70
2021/12/31 10:22:35;;;;;;;1.17;0.95;;;15.70;99.90;;;;;;5076018;28;20225;-71
2021/12/31 10:25:01;;;;;;;1.85;1.10;;;15.70;99.90;;;;;;5073735;28;20215;-69
2021/12/31 10:27:28;;;;;;;1.35;0.85;;;15.70;99.90;;;;;;5075432;28;20191;-69
2021/12/31 10:30:04;;;;;;;2.05;1.15;;;15.70;99.90;;;;;;5077513;28;20172;-71
2021/12/31 10:32:35;;;;;;;1.63;1.02;;;15.70;99.90;;;;;;5066001;28;20206;-71
2021/12/31 10:35:11;;;;;;;2.20;1.05;;;15.70;99.90;;;;;;5075679;28;20175;-71
2021/12/31 10:37:49;;;;;;;1.33;0.95;;;15.80;99.90;;;;;;5066234;28;20291;-69
2021/12/31 10:40:40;;;;;;;1.83;1.20;;;15.80;99.90;;;;;;5075568;28;20180;-72
2021/12/31 10:43:23;;;;;;;1.85;1.00;;;15.80;99.90;;;;;;5075117;28;20226;-71
2021/12/31 10:45:55;;;;;;;1.52;1.00;;;15.90;99.90;;;;;;5079699;28;20340;-72
2021/12/31 10:48:46;;;;;;;1.58;1.10;;;16.00;99.90;;;;;;5074115;28;20191;-69
2021/12/31 10:51:39;;;;;;;1.42;0.80;;;16.10;99.90;;;;;;5071456;28;20177;-69
2021/12/31 10:54:45;;;;;;;1.33;0.93;;;16.20;99.90;;;;;;5068853;28;20184;-66
2021/12/31 10:57:34;;;;;;;1.20;0.80;;;16.40;99.90;;;;;;5080131;28;20207;-70
2021/12/31 11:00:00;;;;;;;1.13;0.80;;;16.50;99.90;;;;;;5075253;28;20292;-70
2021/12/31 11:02:28;;;;;;;1.75;1.10;;;16.60;99.90;;;;;;5069563;28;20253;-71
2021/12/31 11:04:56;;;;;;;1.58;0.90;;;16.70;99.90;;;;;;5073286;28;20173;-71
2021/12/31 11:07:27;;;;;;;2.10;1.00;;;16.80;99.90;;;;;;5076578;28;20192;-71
2021/12/31 11:09:58;;;;;;;1.63;1.10;;;16.90;99.90;;;;;;5075725;28;20268;-72
2021/12/31 11:12:29;;;;;;;5.25;1.10;;;16.90;99.90;;;;;;5075200;28;20208;-68
2021/12/31 11:14:55;;;;;;;1.05;0.93;;;16.90;99.90;;;;;;5074314;28;20172;-67
2021/12/31 11:17:22;;;;;;;2.70;1.10;;;16.90;99.90;;;;;;5074268;28;20182;-71
2021/12/31 11:19:53;;;;;;;1.20;1.00;;;16.90;99.90;;;;;;5073617;28;20210;-69
2021/12/31 11:22:29;;;;;;;2.13;1.33;;;16.90;99.90;;;;;;5075356;28;20172;-68
2021/12/31 11:25:21;;;;;;;2.13;1.42;;;16.90;99.90;;;;;;5074723;28;20207;-67
2021/12/31 11:27:48;;;;;;;2.20;1.17;;;16.90;99.90;;;;;;5067370;28;20211;-67
2021/12/31 11:30:42;;;;;;;2.20;1.40;;;16.80;99.90;;;;;;5073601;28;20222;-67
2021/12/31 11:33:14;;;;;;;2.22;1.42;;;16.90;99.90;;;;;;5073962;28;20274;-67
2021/12/31 11:35:43;;;;;;;1.33;1.05;;;16.90;99.90;;;;;;5073758;28;20184;-67
2021/12/31 11:38:29;;;;;;;1.70;1.35;;;16.90;99.90;;;;;;5076876;28;20339;-67
2021/12/31 11:41:04;;;;;;;1.75;1.15;;;16.80;99.90;;;;;;5065035;28;20212;-67
2021/12/31 11:43:34;;;;;;;1.35;1.00;;;16.80;99.90;;;;;;5087756;28;20187;-67
2021/12/31 11:46:23;;;;;;;1.27;0.95;;;16.80;99.90;;;;;;5074343;28;20227;-67
2021/12/31 11:48:54;;;;;;;2.17;1.00;;;16.80;99.90;;;;;;5075931;28;20213;-68
2021/12/31 11:51:28;;;;;;;1.80;1.35;;;16.80;99.90;;;;;;5109735;28;20171;-67
2021/12/31 11:54:00;;;;;;;2.22;0.85;;;16.70;99.90;;;;;;5072959;28;20168;-67
2021/12/31 11:56:41;;;;;;;1.85;1.10;;;16.70;99.90;;;;;;5075308;28;20198;-67
2021/12/31 11:59:07;;;;;;;1.83;0.98;;;16.70;99.90;;;;;;5075837;28;20183;-67
2021/12/31 12:01:52;;;;;;;1.42;1.10;;;16.70;99.90;;;;;;5073086;28;20210;-66
2021/12/31 12:04:28;;;;;;;1.52;0.90;;;16.70;99.90;;;;;;5104948;28;20179;-68
2021/12/31 12:07:00;;;;;;;1.98;0.82;;;16.70;99.90;;;;;;5070407;28;20210;-67
2021/12/31 12:09:41;;;;;;;1.52;1.00;;;16.70;99.90;;;;;;5073262;28;20194;-67
2021/12/31 12:12:15;;;;;;;1.17;1.00;;;16.70;99.90;;;;;;5081228;28;20187;-68
2021/12/31 12:14:45;;;;;;;2.85;1.38;;;16.70;99.90;;;;;;5074283;28;20264;-67
2021/12/31 12:17:36;;;;;;;1.92;1.25;;;16.80;99.90;;;;;;5075354;28;20168;-67
2021/12/31 12:20:03;;;;;;;3.22;1.70;;;16.80;99.90;;;;;;5069257;28;20179;-67
2021/12/31 12:22:53;;;;;;;2.30;1.70;;;16.80;99.90;;;;;;5067491;28;20196;-67
2021/12/31 12:25:37;;;;;;;2.38;1.80;;;16.90;99.90;;;;;;5074251;28;20187;-67
2021/12/31 12:28:13;;;;;;;5.85;4.38;;;17.00;99.90;;;;;;5075837;28;20294;-67
2021/12/31 12:30:58;;;;;;;2.58;2.38;;;17.10;99.90;;;;;;5080097;28;20184;-66
2021/12/31 12:33:29;;;;;;;1.73;1.58;;;17.30;99.90;;;;;;5078100;28;20167;-66
2021/12/31 12:35:55;;;;;;;1.88;1.38;;;17.60;99.90;;;;;;5077672;28;20188;-68
2021/12/31 12:38:25;;;;;;;2.33;1.33;;;18.00;99.90;;;;;;5074488;28;20191;-65
2021/12/31 12:41:09;;;;;;;1.20;0.90;;;18.50;99.90;;;;;;5074680;28;20196;-66
2021/12/31 12:43:40;;;;;;;1.95;1.65;;;18.90;99.90;;;;;;5077039;28;20179;-67
2021/12/31 12:46:13;;;;;;;1.63;1.30;;;19.30;99.90;;;;;;5104694;28;20361;-66
2021/12/31 12:48:46;;;;;;;5.05;1.30;;;19.40;99.90;;;;;;5073028;28;20215;-65
2021/12/31 12:51:24;;;;;;;1.50;1.17;;;19.40;99.90;;;;;;5072412;28;20259;-66
2021/12/31 12:53:53;;;;;;;1.27;0.98;;;19.30;99.90;;;;;;5083125;28;20202;-65
2021/12/31 12:56:22;;;;;;;1.50;0.93;;;19.20;99.90;;;;;;5102696;28;20191;-66
2021/12/31 12:58:54;;;;;;;1.48;1.02;;;19.20;99.90;;;;;;5084277;28;20175;-65
2021/12/31 13:01:48;;;;;;;1.13;1.00;;;19.10;99.90;;;;;;5078646;28;20190;-66